Nearby METAR* Reports

*"METAR [Météorologique Aviation Régulière] is the international standard code format for hourly surface weather observations which is analogous to the SA coding currently used in the US. The acronym roughly translates from French as Aviation Routine Weather Report." (Source: https://www.ncdc.noaa.gov/wdcmet/data-access-search-viewer-tools/metar-terminal-aerodrome-forecast-taf-faq)

 

KTEB - Teterboro, New Jersey, USA
Distance from station: ENE 2mi, 3km
Updated: 07/13/2024 7:51pm
Clear
Clear
 Wind from S
Wind: S 7 mph, 11 km/h
Temperature: 82°F, 28°C
Heat Index: 86°F, 30°C
Dew Point: 72°F, 22°C
Humidity: 70%
Barometer: 30.05 inHg, 1017.6 hPa
Clouds: Clear
Visibility: 10 miles, 16 km
2024/07/13 23:51 KTEB 132351Z 19006KT 10SM CLR 28/22 A3005 RMK AO2 SLP175 T02830217 10311 20283 53000 $
KNYC - Nyc/Central Park, New York, USA
Distance from station: SE 8mi, 13km
Updated: 07/13/2024 7:51pm
Clear
Clear
 Wind from varies
Wind: varies 3 mph, 6 km/h
Temperature: 81°F, 27°C
Heat Index: 85°F, 29°C
Dew Point: 70°F, 21°C
Humidity: 70%
Barometer: 30.09 inHg, 1019 hPa
Clouds: Clear
Visibility: 10 miles, 16 km
2024/07/13 23:51 KNYC 132351Z AUTO VRB03KT 10SM CLR 27/21 A3009 RMK AO2 SLP181 T02720211 10306 20272 53001
KCDW - Caldwell, New Jersey, USA
Distance from station: W 11mi, 17km
Updated: 07/13/2024 7:53pm
Clear
Clear
 Wind from SW
Wind: SW 3 mph, 6 km/h
Temperature: 88°F, 31°C
Heat Index: 93°F, 34°C
Dew Point: 70°F, 21°C
Humidity: 55%
Barometer: 30.06 inHg, 1017.9 hPa
Clouds: Clear
Visibility: 10 miles, 16 km
2024/07/13 23:53 KCDW 132353Z 22003KT 10SM CLR 31/21 A3006 RMK AO2 SLP184 T03060206 10333 20300 53001
 
KLGA - Nyc/La Guardia, New York, USA
Distance from station: ESE 12mi, 19km
Updated: 07/13/2024 7:51pm
Partly cloudy
Partly cloudy
 Wind from SSE
Wind: SSE 10 mph, 17 km/h
Temperature: 81°F, 27°C
Heat Index: 85°F, 29°C
Dew Point: 70°F, 21°C
Humidity: 70%
Barometer: 30.06 inHg, 1017.9 hPa
Clouds: Partly cloudy
Visibility: 10 miles, 16 km
Cloud details: Few Clouds 3500 ft
Few Clouds 7000 ft
Partly cloudy 15000 ft
Partly cloudy 25000 ft
2024/07/13 23:51 KLGA 132351Z 16009KT 10SM FEW035 FEW070 SCT150 SCT250 27/21 A3006 RMK AO2 SLP180 T02670206 10306 20267 53002
KEWR - Newark, New Jersey, USA
Distance from station: SSW 13mi, 20km
Updated: 07/13/2024 7:51pm
Partly cloudy
Partly cloudy
 Wind from S
Wind: S 6 mph, 9 km/h
Temperature: 84°F, 29°C
Heat Index: 88°F, 31°C
Dew Point: 70°F, 21°C
Humidity: 62%
Barometer: 30.06 inHg, 1017.9 hPa
Clouds: Partly cloudy
Visibility: 10 miles, 16 km
Cloud details: Few Clouds 3000 ft
Few Clouds 7000 ft
Partly cloudy 25000 ft
2024/07/13 23:51 KEWR 132351Z 17005KT 10SM FEW030 FEW070 SCT250 29/21 A3006 RMK AO2 SLP180 T02940211 10317 20289 53002
KMMU - Morristown Muni, New Jersey, USA
Distance from station: WSW 18mi, 29km
Updated: 07/13/2024 7:45pm
Few Clouds
Few Clouds
 Wind from S
Wind: S 5 mph, 7 km/h
Temperature: 86°F, 30°C
Heat Index: 93°F, 34°C
Dew Point: 73°F, 23°C
Humidity: 66%
Barometer: 30.07 inHg, 1018.3 hPa
Clouds: Few Clouds
Visibility: 10 miles, 16 km
Cloud details: Few Clouds 6000 ft
2024/07/13 23:45 KMMU 132345Z 19004KT 10SM FEW060 30/23 A3007
 
KLDJ - Linden, New Jersey, USA
Distance from station: SSW 19mi, 30km
Updated: 07/03/2024 9:55pm
NOT Current
Clear
Clear
 Wind from SW
Wind: SW 5 mph, 7 km/h
Temperature: 73°F, 23°C
Dew Point: 50°F, 10°C
Humidity: 44%
Barometer: 30.08 inHg, 1018.6 hPa
Clouds: Clear
Visibility: 10 miles, 16 km
2024/07/04 01:55 KLDJ 040155Z AUTO 23004KT 10SM CLR 23/10 A3008 RMK AO2 T02320103
KJFK - Nyc/Jfk Arpt, New York, USA
Distance from station: SE 23mi, 36km
Updated: 07/13/2024 7:51pm
Few Clouds
Few Clouds
 Wind from S
Wind: S 7 mph, 11 km/h
Temperature: 77°F, 25°C
Dew Point: 72°F, 22°C
Humidity: 83%
Barometer: 30.08 inHg, 1018.6 hPa
Clouds: Few Clouds
Visibility: 10 miles, 16 km
Cloud details: Few Clouds 6500 ft
Few Clouds 15000 ft
Few Clouds 25000 ft
2024/07/13 23:51 KJFK 132351Z 18006KT 10SM FEW065 FEW150 FEW250 25/22 A3008 RMK AO2 SLP186 T02500222 10272 20250 55003 $
KHPN - White Plains, New York, USA
Distance from station: NE 25mi, 40km
Updated: 07/13/2024 7:56pm
Few Clouds
Few Clouds
 Wind from SSE
Wind: SSE 5 mph, 7 km/h
Temperature: 79°F, 26°C
Dew Point: 72°F, 22°C
Humidity: 79%
Barometer: 30.08 inHg, 1018.6 hPa
Clouds: Few Clouds
Visibility: 10 miles, 16 km
Cloud details: Few Clouds 2500 ft
2024/07/13 23:56 KHPN 132356Z 15004KT 10SM FEW025 26/22 A3008 RMK AO2 SLP179 T02610222 10294 20261 53001 $
 
KSMQ - Somerville, New Jersey, USA
Distance from station: WSW 35mi, 56km
Updated: 07/13/2024 7:53pm
Few Clouds
Few Clouds
 Wind from calm
Wind: Calm
Temperature: 81°F, 27°C
Heat Index: 87°F, 31°C
Dew Point: 75°F, 24°C
Humidity: 84%
Barometer: 30.05 inHg, 1017.6 hPa
Clouds: Few Clouds
Visibility: 9 miles, 14 km
Cloud details: Few Clouds 11000 ft
2024/07/13 23:53 KSMQ 132353Z AUTO 00000KT 9SM FEW110 27/24 A3005 RMK AO2 SLP173 T02670239 10333 20267 53001
K12N - Andover, New Jersey, USA
Distance from station: WNW 36mi, 57km
Updated: 07/13/2024 7:54pm

 Wind from calm
Wind: Calm
Temperature: 81°F, 27°C
Heat Index: 86°F, 30°C
Dew Point: 73°F, 23°C
Humidity: 79%
Barometer: 30.10 inHg, 1019.3 hPa
2024/07/13 23:54 K12N 132354Z AUTO 00000KT 27/23 A3010 RMK AO1 SLP181 60008 T02720228 10322 20272 53005
KFRG - Farmingdale, New York, USA
Distance from station: ESE 36mi, 58km
Updated: 07/13/2024 7:53pm
Clear
Clear
 Wind from SSW
Wind: SSW 8 mph, 13 km/h
Temperature: 77°F, 25°C
Dew Point: 72°F, 22°C
Humidity: 83%
Barometer: 30.09 inHg, 1019 hPa
Clouds: Clear
Visibility: 10 miles, 16 km
2024/07/13 23:53 KFRG 132353Z 21007KT 10SM CLR 25/22 A3009 RMK AO2 SLP187 T02500222 10272 20250 55001 $
 
KFWN - Sussex, New Jersey, USA
Distance from station: NW 37mi, 60km
Updated: 07/13/2024 7:53pm
Few Clouds
Few Clouds
 Wind from calm
Wind: Calm
Temperature: 82°F, 28°C
Heat Index: 86°F, 30°C
Dew Point: 72°F, 22°C
Humidity: 70%
Barometer: 30.09 inHg, 1019 hPa
Clouds: Few Clouds
Visibility: 10 miles, 16 km
Cloud details: Few Clouds 11000 ft
2024/07/13 23:53 KFWN 132353Z AUTO 00000KT 10SM FEW110 28/22 A3009 RMK AO2 SLP184 T02830222 10328 20283 53006
KSWF - Newburgh/Stewart, New York, USA
Distance from station: 0 44mi, 72km
Updated: 07/13/2024 7:45pm
Partly cloudy
Partly cloudy
 Wind from varies
Wind: varies 5 mph, 7 km/h
Temperature: 86°F, 30°C
Heat Index: 93°F, 34°C
Dew Point: 73°F, 23°C
Humidity: 66%
Barometer: 30.07 inHg, 1018.3 hPa
Clouds: Partly cloudy
Visibility: 10 miles, 16 km
Cloud details: Partly cloudy 5000 ft
2024/07/13 23:45 KSWF 132345Z VRB04KT 10SM SCT050 30/23 A3007
KMGJ - Montgomery, New York, USA
Distance from station: NNW 47mi, 75km
Updated: 07/13/2024 7:54pm
Mostly cloudy
Mostly cloudy
 Wind from W
Wind: W 5 mph, 7 km/h
Temperature: 84°F, 29°C
Heat Index: 86°F, 30°C
Dew Point: 66°F, 19°C
Humidity: 55%
Barometer: 30.06 inHg, 1017.9 hPa
Clouds: Mostly cloudy
Visibility: 10 miles, 16 km
Cloud details: Partly cloudy 6500 ft
Mostly cloudy 8500 ft
2024/07/13 23:54 KMGJ 132354Z AUTO 28004KT 10SM SCT065 BKN085 29/19 A3006 RMK AO2 SLP175 T02890194 10322 20289 53003
 
KDXR - Danbury, Connecticut, USA
Distance from station: NE 47mi, 76km
Updated: 07/13/2024 7:53pm
Mostly cloudy
Mostly cloudy
 Wind from calm
Wind: Calm
Temperature: 81°F, 27°C
Heat Index: 85°F, 29°C
Dew Point: 72°F, 22°C
Humidity: 74%
Barometer: 30.10 inHg, 1019.3 hPa
Clouds: Mostly cloudy
Visibility: 10 miles, 16 km
Cloud details: Mostly cloudy 8500 ft
Mostly cloudy 10000 ft
2024/07/13 23:53 KDXR 132353Z 00000KT 10SM BKN085 BKN100 27/22 A3010 RMK AO2 SLP186 T02720222 10306 20272 53003 $
KBLM - Belmar/Farmdale, New Jersey, USA
Distance from station: S 48mi, 77km
Updated: 07/13/2024 7:56pm
Clear
Clear
 Wind from SE
Wind: SE 5 mph, 7 km/h
Temperature: 81°F, 27°C
Heat Index: 87°F, 31°C
Dew Point: 75°F, 24°C
Humidity: 84%
Barometer: 30.09 inHg, 1019 hPa
Clouds: Clear
Visibility: 10 miles, 16 km
2024/07/13 23:56 KBLM 132356Z AUTO 14004KT 10SM CLR 27/24 A3009 RMK AO2 SLP189 T02670239 10311 20267 55002